Time;durP1;ratioP1;P1;durP2;ratioP2;P2;SDS_P1;SDS_P2;PMS_P1;PMS_P2;Temp;Humidity;BMP_temperature;BMP_pressure;BME280_temperature;BME280_humidity;BME280_pressure;Samples;Min_cycle;Max_cycle;Signal;HPM_P1;HPM_P2
2022/03/14 00:00:29;;;;;;;5.57;3.40;;;11.70;99.90;;;;;;6276852;22;20514;-90
2022/03/14 00:32:48;;;;;;;3.27;2.97;;;11.70;99.90;;;;;;6273751;22;20146;-93
2022/03/14 00:35:57;;;;;;;;;;;;;;;;;;;;;
2022/03/14 07:12:13;;;;;;;15.07;7.43;;;10.50;99.90;;;;;;6270602;22;20209;-90
2022/03/14 07:14:42;;;;;;;10.90;7.17;;;10.60;99.90;;;;;;6274649;22;20519;-91
2022/03/14 07:17:09;;;;;;;13.40;7.40;;;10.50;99.90;;;;;;6276943;22;20146;-90
2022/03/14 07:19:34;;;;;;;20.93;7.80;;;10.50;99.90;;;;;;6276840;22;20150;-89
2022/03/14 07:22:00;;;;;;;15.27;7.43;;;10.40;99.90;;;;;;6276869;22;20460;-90
2022/03/14 07:24:26;;;;;;;16.33;7.57;;;10.50;99.90;;;;;;6276799;22;20894;-91
2022/03/14 07:26:52;;;;;;;15.20;7.37;;;10.50;99.90;;;;;;6276481;22;20158;-90
2022/03/14 07:29:17;;;;;;;13.03;6.93;;;10.50;99.90;;;;;;6277435;22;20614;-92
2022/03/14 07:31:43;;;;;;;13.40;6.90;;;10.30;99.90;;;;;;6276878;22;20158;-90
2022/03/14 07:34:09;;;;;;;15.37;7.43;;;10.40;99.90;;;;;;6276603;22;20583;-91
2022/03/14 07:36:36;;;;;;;15.37;7.17;;;10.40;99.90;;;;;;6276616;22;20154;-90
2022/03/14 07:39:04;;;;;;;15.23;7.03;;;10.50;99.90;;;;;;6276401;22;20162;-90
2022/03/14 07:41:29;;;;;;;15.33;5.90;;;10.70;99.90;;;;;;6276225;22;20151;-90
2022/03/14 07:43:55;;;;;;;13.47;6.57;;;10.60;99.90;;;;;;6276681;22;20146;-91
2022/03/14 07:46:21;;;;;;;18.90;7.73;;;10.60;99.90;;;;;;6276484;22;20165;-90
2022/03/14 07:48:47;;;;;;;20.17;11.30;;;10.70;99.90;;;;;;6276917;22;20147;-91
2022/03/14 07:51:12;;;;;;;31.17;16.83;;;10.70;99.90;;;;;;6276815;22;20535;-90
2022/03/14 07:53:38;;;;;;;29.40;18.50;;;10.90;99.90;;;;;;6276468;22;20151;-90
2022/03/14 07:56:04;;;;;;;30.37;17.43;;;10.90;99.90;;;;;;6276558;22;20146;-90
2022/03/14 07:58:30;;;;;;;28.77;18.07;;;10.80;99.90;;;;;;6276461;22;20146;-91
2022/03/14 08:00:55;;;;;;;18.33;13.93;;;11.00;99.90;;;;;;6276640;22;20151;-90
2022/03/14 08:03:22;;;;;;;24.93;12.80;;;11.20;99.90;;;;;;6276397;22;20150;-90
2022/03/14 08:05:53;;;;;;;18.57;9.70;;;11.20;99.90;;;;;;6276398;22;20553;-90
2022/03/14 08:08:19;;;;;;;18.13;8.60;;;11.20;99.90;;;;;;6276213;22;20150;-90
2022/03/14 08:10:46;;;;;;;18.83;6.50;;;11.20;99.90;;;;;;6276421;22;20154;-91
2022/03/14 08:13:12;;;;;;;14.03;6.00;;;11.30;99.90;;;;;;6274281;22;20489;-90
2022/03/14 08:15:38;;;;;;;13.20;5.90;;;11.10;99.90;;;;;;6276553;22;20182;-90
2022/03/14 08:18:07;;;;;;;9.97;6.87;;;11.00;99.90;;;;;;6276336;22;20147;-89
2022/03/14 08:20:33;;;;;;;13.40;6.50;;;11.10;99.90;;;;;;6275464;22;20151;-89
2022/03/14 08:23:00;;;;;;;11.57;5.47;;;11.10;99.90;;;;;;6276441;22;20149;-90
2022/03/14 08:25:26;;;;;;;8.83;5.40;;;11.10;99.90;;;;;;6277264;22;20146;-90
2022/03/14 08:27:53;;;;;;;14.23;6.00;;;11.00;99.90;;;;;;6277049;22;20145;-89
2022/03/14 08:30:23;;;;;;;15.07;5.20;;;11.00;99.90;;;;;;6277062;22;20151;-90
2022/03/14 08:32:51;;;;;;;12.83;4.83;;;11.00;99.90;;;;;;6276579;22;20142;-90
2022/03/14 08:35:20;;;;;;;14.17;5.20;;;11.00;99.90;;;;;;6276660;22;20190;-90
2022/03/14 08:37:47;;;;;;;11.37;5.77;;;11.00;99.90;;;;;;6276620;22;20579;-88
2022/03/14 08:40:16;;;;;;;13.13;6.47;;;10.90;99.90;;;;;;6276785;22;20146;-89
2022/03/14 08:42:46;;;;;;;13.97;5.80;;;11.00;99.90;;;;;;6276210;22;20155;-90
2022/03/14 08:45:13;;;;;;;11.60;4.83;;;11.00;99.90;;;;;;6276721;22;20199;-90
2022/03/14 08:47:39;;;;;;;13.53;5.13;;;11.10;99.90;;;;;;6276419;22;20563;-89
2022/03/14 08:50:07;;;;;;;12.63;4.93;;;11.10;99.90;;;;;;6277119;22;20174;-89
2022/03/14 08:52:34;;;;;;;14.50;4.83;;;11.20;99.90;;;;;;6276124;22;20481;-90
2022/03/14 08:55:00;;;;;;;14.73;4.43;;;11.50;99.90;;;;;;6276422;22;20178;-90
2022/03/14 08:57:26;;;;;;;11.27;4.40;;;11.60;99.90;;;;;;6276131;22;20139;-89
2022/03/14 08:59:52;;;;;;;12.27;4.70;;;11.30;99.90;;;;;;6276273;22;20142;-89
2022/03/14 09:02:18;;;;;;;12.43;4.37;;;11.20;99.90;;;;;;6276407;22;20164;-90
2022/03/14 09:04:44;;;;;;;11.40;4.23;;;11.20;99.90;;;;;;6276844;22;20575;-90
2022/03/14 09:07:10;;;;;;;9.43;4.17;;;11.20;99.90;;;;;;6276296;22;20633;-90
2022/03/14 09:09:36;;;;;;;10.63;4.20;;;11.40;99.90;;;;;;6277191;22;20143;-90
2022/03/14 09:12:02;;;;;;;12.30;4.37;;;11.60;99.90;;;;;;6277737;22;20591;-91
2022/03/14 09:14:30;;;;;;;12.90;4.37;;;11.70;99.90;;;;;;6279106;22;20189;-90
2022/03/14 09:16:57;;;;;;;11.00;4.03;;;11.90;99.90;;;;;;6276056;22;20143;-90
2022/03/14 09:19:23;;;;;;;14.13;4.20;;;11.90;99.90;;;;;;6276405;22;20200;-90
2022/03/14 12:40:36;;;;;;;10.37;4.00;;;20.60;87.20;;;;;;6279079;22;20202;-88
2022/03/14 12:43:08;;;;;;;14.60;4.67;;;21.70;84.10;;;;;;6276555;22;20509;-87
2022/03/14 12:45:58;;;;;;;7.63;3.50;;;22.40;81.80;;;;;;6275842;22;20281;-88
2022/03/14 12:48:26;;;;;;;9.33;3.73;;;22.70;80.50;;;;;;6258454;22;20587;-87
2022/03/14 12:50:59;;;;;;;7.67;3.43;;;22.80;79.00;;;;;;6277201;22;20147;-89
2022/03/14 12:53:27;;;;;;;13.57;3.57;;;22.90;78.60;;;;;;6276609;22;20200;-88
2022/03/14 12:55:57;;;;;;;10.10;3.23;;;21.30;80.40;;;;;;6276534;22;20185;-89
2022/03/14 12:58:28;;;;;;;6.53;3.63;;;20.10;83.10;;;;;;6276649;22;20149;-88
2022/03/14 13:00:55;;;;;;;8.50;3.80;;;18.60;85.40;;;;;;6276835;22;20144;-88
2022/03/14 13:03:29;;;;;;;8.30;3.60;;;18.00;87.50;;;;;;6276368;22;20487;-89
2022/03/14 13:05:57;;;;;;;11.60;3.90;;;18.50;88.40;;;;;;6276693;22;20146;-89
2022/03/14 13:08:23;;;;;;;5.33;3.00;;;20.00;85.60;;;;;;6276614;22;20162;-89
2022/03/14 13:10:51;;;;;;;9.90;2.50;;;21.50;81.50;;;;;;6276357;22;20150;-89
2022/03/14 13:13:33;;;;;;;9.40;3.03;;;23.10;78.30;;;;;;6276435;22;20182;-88
2022/03/14 13:16:06;;;;;;;5.80;2.63;;;23.20;76.30;;;;;;6276206;22;20236;-88
2022/03/14 13:18:34;;;;;;;7.50;2.37;;;22.70;76.20;;;;;;6276492;22;20222;-88
2022/03/14 13:21:00;;;;;;;7.47;2.97;;;21.60;77.00;;;;;;6276425;22;20200;-88
2022/03/14 13:23:26;;;;;;;6.47;2.73;;;20.30;80.00;;;;;;6276536;22;20145;-88
2022/03/14 13:25:52;;;;;;;9.20;3.90;;;19.80;81.80;;;;;;6276260;22;20144;-88
2022/03/14 13:28:29;;;;;;;9.00;2.77;;;19.30;82.90;;;;;;6276138;22;20478;-88
2022/03/14 13:30:56;;;;;;;7.23;2.60;;;18.90;84.10;;;;;;6276161;22;20146;-88
2022/03/14 13:33:27;;;;;;;6.03;1.90;;;18.60;83.80;;;;;;6276091;22;20146;-88
2022/03/14 13:35:54;;;;;;;9.27;4.07;;;18.00;82.60;;;;;;6275999;22;20178;-87
2022/03/14 13:38:39;;;;;;;9.13;2.90;;;17.20;85.10;;;;;;6276195;22;20173;-87
2022/03/14 13:41:12;;;;;;;10.73;3.63;;;17.50;84.70;;;;;;6276169;22;20159;-88
2022/03/14 13:43:40;;;;;;;8.07;3.40;;;17.30;85.60;;;;;;6275697;22;20229;-88
2022/03/14 13:46:33;;;;;;;7.67;3.43;;;17.70;85.00;;;;;;6275992;22;20141;-88
2022/03/14 13:48:59;;;;;;;6.73;2.33;;;18.80;83.50;;;;;;6275710;22;20149;-89
2022/03/14 13:51:30;;;;;;;8.67;2.70;;;19.70;81.40;;;;;;6275860;22;20149;-88
2022/03/14 13:54:04;;;;;;;7.70;2.30;;;20.60;79.90;;;;;;6275627;22;20153;-89
2022/03/14 13:56:35;;;;;;;7.83;2.37;;;22.00;77.30;;;;;;6275773;22;20164;-89
2022/03/14 13:59:01;;;;;;;6.63;2.30;;;23.40;73.70;;;;;;6275986;22;20195;-88
2022/03/14 14:27:15;;;;;;;7.83;2.33;;;22.20;71.60;;;;;;6273112;22;20242;-89
2022/03/14 14:29:44;;;;;;;6.03;2.23;;;21.30;71.50;;;;;;6277212;22;20223;-89
2022/03/14 14:32:18;;;;;;;9.00;3.47;;;20.90;72.10;;;;;;6275586;22;20155;-88
2022/03/14 14:34:45;;;;;;;6.00;2.10;;;20.60;72.80;;;;;;6275302;22;20263;-89
2022/03/14 14:37:11;;;;;;;15.07;5.67;;;20.10;73.40;;;;;;6275544;22;20146;-89
2022/03/14 14:39:39;;;;;;;6.73;2.10;;;19.60;74.00;;;;;;6275397;22;20176;-89
2022/03/14 14:42:10;;;;;;;24.37;7.53;;;19.40;74.20;;;;;;6275705;22;20156;-89
2022/03/14 14:44:36;;;;;;;10.77;3.23;;;19.10;75.00;;;;;;6275683;22;20137;-89
2022/03/14 14:47:02;;;;;;;7.67;2.10;;;19.10;74.60;;;;;;6275798;22;20172;-89
2022/03/14 14:49:29;;;;;;;7.43;1.70;;;19.30;74.60;;;;;;6275607;22;20177;-89
2022/03/14 14:51:57;;;;;;;3.63;1.80;;;20.40;73.60;;;;;;6275514;22;20141;-88
2022/03/14 14:54:24;;;;;;;8.17;2.10;;;20.80;72.30;;;;;;6275019;22;20170;-88
2022/03/14 14:56:50;;;;;;;6.40;1.77;;;20.80;72.70;;;;;;6278206;22;20170;-89
2022/03/14 14:59:17;;;;;;;4.43;1.33;;;21.40;72.20;;;;;;6283578;22;20146;-90
2022/03/14 15:01:43;;;;;;;4.13;1.73;;;22.20;70.00;;;;;;6283452;22;20168;-89
2022/03/14 15:04:11;;;;;;;4.97;1.40;;;22.10;71.20;;;;;;6282772;22;20272;-89
2022/03/14 15:06:37;;;;;;;5.90;1.60;;;21.70;69.90;;;;;;6283264;22;20152;-90
2022/03/14 15:09:03;;;;;;;5.13;1.87;;;21.50;70.80;;;;;;6284588;22;20158;-89
2022/03/14 15:11:29;;;;;;;8.60;1.83;;;21.50;70.00;;;;;;6284557;22;20133;-89
2022/03/14 15:13:54;;;;;;;5.90;1.70;;;21.40;70.00;;;;;;6283272;22;20151;-85
2022/03/14 15:16:20;;;;;;;5.40;1.60;;;21.00;70.70;;;;;;6283533;22;20146;-89
2022/03/14 15:18:46;;;;;;;5.63;1.47;;;20.50;71.20;;;;;;6283559;22;20149;-88
2022/03/14 16:57:58;;;;;;;7.33;2.47;;;20.10;71.80;;;;;;6273499;22;20226;-87
2022/03/14 17:00:33;;;;;;;8.67;2.60;;;19.60;72.40;;;;;;6287355;22;20148;-92
2022/03/14 17:03:26;;;;;;;6.07;2.57;;;19.10;72.90;;;;;;6286611;22;20144;-94
2022/03/14 17:05:52;;;;;;;9.47;1.80;;;18.70;73.80;;;;;;6286972;22;20177;-92
2022/03/14 17:08:25;;;;;;;8.27;2.80;;;18.20;74.60;;;;;;6290450;22;20146;-92
2022/03/14 17:11:39;;;;;;;9.93;2.37;;;17.80;75.90;;;;;;6292116;22;20139;-92
2022/03/14 17:27:59;;;;;;;7.63;2.13;;;16.90;78.80;;;;;;6287106;22;20146;-91
2022/03/14 17:30:45;;;;;;;4.90;1.90;;;16.90;78.10;;;;;;6285630;22;20154;-93
2022/03/14 17:33:31;;;;;;;;;;;;;;;;;;;;;
2022/03/14 17:35:58;;;;;;;8.30;2.43;;;16.50;78.20;;;;;;6286783;22;20216;-94
2022/03/14 17:41:10;;;;;;;7.53;1.90;;;16.40;78.80;;;;;;6283723;22;20592;-91
2022/03/14 17:43:40;;;;;;;9.47;1.80;;;16.40;79.20;;;;;;6282570;22;20151;-92
2022/03/14 17:46:14;;;;;;;7.97;2.10;;;16.30;79.40;;;;;;6281408;22;20150;-91
2022/03/14 17:48:42;;;;;;;8.30;2.40;;;16.40;79.60;;;;;;6283900;22;20255;-92
2022/03/14 17:51:24;;;;;;;;;;;;;;;;;;;;;
2022/03/14 17:53:54;;;;;;;9.07;2.50;;;16.50;79.40;;;;;;6285236;22;20199;-92
2022/03/14 17:56:25;;;;;;;9.23;2.30;;;16.60;79.30;;;;;;6284719;22;20155;-92
2022/03/14 17:59:08;;;;;;;6.50;2.60;;;16.40;79.90;;;;;;6281388;22;20180;-92
2022/03/14 18:01:36;;;;;;;8.90;1.93;;;16.50;79.70;;;;;;6284157;22;20233;-92
2022/03/14 18:04:02;;;;;;;9.97;2.17;;;16.30;80.10;;;;;;6284029;22;20210;-91
2022/03/14 18:06:32;;;;;;;8.17;2.93;;;16.30;80.40;;;;;;6284494;22;20150;-91
2022/03/14 18:09:06;;;;;;;10.53;2.60;;;16.40;80.60;;;;;;6284733;22;20159;-92
2022/03/14 18:14:47;;;;;;;9.33;3.47;;;16.00;81.60;;;;;;6197097;23;20186;-92
2022/03/14 18:17:32;;;;;;;9.37;2.93;;;15.90;82.30;;;;;;6163101;23;20156;-91
2022/03/14 18:19:58;;;;;;;10.33;3.00;;;16.10;81.60;;;;;;6164139;23;20156;-91
2022/03/14 18:23:06;;;;;;;10.23;2.83;;;16.20;81.60;;;;;;6167034;23;20498;-92
2022/03/14 18:25:47;;;;;;;8.47;2.33;;;16.20;81.50;;;;;;6269428;22;20225;-92
2022/03/14 18:28:13;;;;;;;7.53;2.23;;;16.00;81.90;;;;;;6277308;22;20240;-91
2022/03/14 18:31:40;;;;;;;7.03;2.47;;;16.10;81.70;;;;;;6281871;22;20170;-92
2022/03/14 18:48:36;;;;;;;10.50;3.40;;;15.80;83.20;;;;;;6154839;23;20198;-93
2022/03/14 19:37:15;;;;;;;9.97;4.80;;;14.80;88.00;;;;;;6277170;22;20225;-87
2022/03/14 19:39:40;;;;;;;10.10;6.37;;;14.80;88.20;;;;;;6275420;22;20683;-87
2022/03/14 19:42:06;;;;;;;11.80;4.03;;;14.80;88.30;;;;;;6275793;22;20250;-86
2022/03/14 19:44:32;;;;;;;11.07;4.40;;;14.80;88.50;;;;;;6275345;22;20476;-86
2022/03/14 19:46:57;;;;;;;12.90;4.87;;;14.90;88.90;;;;;;6274819;22;20157;-86
2022/03/14 19:49:24;;;;;;;11.07;5.87;;;14.90;89.10;;;;;;6274364;22;20158;-86
2022/03/14 19:51:50;;;;;;;11.47;5.27;;;14.80;89.50;;;;;;6274510;22;20163;-85
2022/03/14 19:54:15;;;;;;;10.37;5.17;;;14.60;90.00;;;;;;6275793;22;20222;-87
2022/03/14 19:56:42;;;;;;;18.10;4.97;;;14.50;90.20;;;;;;6275861;22;20146;-86
2022/03/14 19:59:08;;;;;;;14.90;4.93;;;14.40;90.30;;;;;;6274545;22;20211;-87
2022/03/14 20:01:34;;;;;;;12.23;5.87;;;14.40;90.10;;;;;;6274641;22;20591;-86
2022/03/14 20:03:59;;;;;;;11.00;6.17;;;14.40;90.20;;;;;;6274799;22;20150;-87
2022/03/14 20:06:30;;;;;;;16.60;7.33;;;14.50;90.00;;;;;;6274613;22;20156;-86
2022/03/14 20:08:57;;;;;;;26.23;14.83;;;14.60;90.00;;;;;;6275468;22;20159;-86
2022/03/14 21:32:13;;;;;;;17.53;8.67;;;13.40;92.30;;;;;;6273953;22;20201;-91
2022/03/14 21:34:39;;;;;;;30.40;13.00;;;13.30;92.40;;;;;;6273916;22;20183;-88
2022/03/14 21:37:04;;;;;;;25.33;13.67;;;13.30;92.50;;;;;;6274377;22;20220;-88
2022/03/14 21:39:30;;;;;;;31.87;14.43;;;13.30;92.50;;;;;;6274441;22;20150;-88
2022/03/14 21:41:57;;;;;;;26.10;12.07;;;13.30;92.50;;;;;;6275468;22;20152;-88
2022/03/14 21:44:22;;;;;;;27.50;12.00;;;13.40;92.40;;;;;;6275691;22;20158;-88
2022/03/14 21:46:49;;;;;;;20.90;11.00;;;13.20;92.70;;;;;;6275567;22;20157;-88
2022/03/14 21:49:16;;;;;;;22.97;11.03;;;13.10;92.70;;;;;;6275556;22;20150;-88
2022/03/14 21:51:45;;;;;;;28.63;9.90;;;13.10;93.00;;;;;;6275652;22;20595;-88
2022/03/14 21:54:15;;;;;;;16.57;9.03;;;13.10;92.90;;;;;;6275257;22;20158;-87
2022/03/14 21:56:42;;;;;;;16.93;8.73;;;13.20;92.90;;;;;;6275292;22;20148;-88
2022/03/14 21:59:10;;;;;;;18.03;8.50;;;13.10;92.90;;;;;;6275264;22;20165;-88
2022/03/14 22:01:35;;;;;;;20.70;8.53;;;13.00;93.00;;;;;;6275724;22;20159;-88
2022/03/14 22:04:01;;;;;;;19.07;8.80;;;13.10;92.90;;;;;;6275638;22;20140;-88
2022/03/14 22:06:27;;;;;;;23.93;11.47;;;13.20;93.00;;;;;;6275710;22;20579;-88
2022/03/14 22:08:55;;;;;;;25.33;14.83;;;13.40;92.80;;;;;;6275452;22;20166;-88
2022/03/14 22:11:21;;;;;;;40.03;23.03;;;13.40;92.70;;;;;;6274971;22;20154;-88
2022/03/14 22:13:50;;;;;;;22.37;10.80;;;13.40;92.60;;;;;;6275566;22;20535;-88
2022/03/14 22:16:19;;;;;;;19.13;10.53;;;13.40;92.90;;;;;;6275520;22;20701;-88
2022/03/14 22:18:46;;;;;;;19.23;11.53;;;13.30;92.70;;;;;;6275792;22;20151;-89
2022/03/14 22:21:16;;;;;;;18.07;9.20;;;13.30;92.80;;;;;;6276087;22;20146;-88
2022/03/14 22:23:42;;;;;;;16.90;9.60;;;13.40;92.70;;;;;;6274294;22;20603;-87
2022/03/14 22:26:09;;;;;;;16.40;8.77;;;13.50;92.60;;;;;;6276287;22;20147;-88
2022/03/14 22:28:35;;;;;;;18.60;8.27;;;13.50;92.50;;;;;;6276171;22;20157;-88
2022/03/14 22:31:02;;;;;;;16.63;8.17;;;13.50;92.30;;;;;;6275816;22;20200;-88
2022/03/14 22:33:28;;;;;;;16.27;8.50;;;13.30;92.50;;;;;;6276054;22;20202;-88
2022/03/14 22:35:53;;;;;;;16.27;7.90;;;13.30;92.90;;;;;;6276598;22;20553;-88
2022/03/14 22:38:19;;;;;;;13.67;7.50;;;13.20;93.00;;;;;;6276419;22;20165;-90
2022/03/14 22:40:44;;;;;;;14.27;6.40;;;13.30;92.80;;;;;;6273141;22;20149;-88
2022/03/14 22:43:11;;;;;;;19.57;6.20;;;13.20;92.90;;;;;;6273316;22;20154;-89
2022/03/14 22:45:37;;;;;;;12.73;5.73;;;13.30;92.90;;;;;;6274005;22;20237;-88
2022/03/14 22:48:03;;;;;;;12.77;6.77;;;13.10;93.00;;;;;;6274154;22;20146;-88
2022/03/14 22:50:29;;;;;;;12.23;5.57;;;13.20;93.00;;;;;;6274180;22;20204;-89
2022/03/14 22:52:55;;;;;;;12.30;5.43;;;13.30;92.40;;;;;;6276138;22;20143;-93
2022/03/14 22:55:22;;;;;;;9.47;4.97;;;13.50;91.70;;;;;;6279346;22;20262;-93
2022/03/14 22:57:47;;;;;;;15.27;6.30;;;13.60;91.60;;;;;;6279325;22;20155;-92
2022/03/14 23:00:33;;;;;;;14.63;5.63;;;13.40;92.20;;;;;;6280570;22;20162;-93
2022/03/14 23:05:47;;;;;;;11.93;4.47;;;13.00;92.80;;;;;;6281083;22;20474;-92
2022/03/14 23:08:23;;;;;;;11.57;4.80;;;13.00;92.90;;;;;;6279458;22;20150;-92
2022/03/14 23:13:35;;;;;;;9.93;4.07;;;13.10;92.50;;;;;;6280656;22;20693;-92
2022/03/14 23:16:04;;;;;;;12.63;4.40;;;13.20;92.20;;;;;;6281570;22;20177;-92
2022/03/14 23:18:31;;;;;;;6.83;3.97;;;13.00;92.80;;;;;;6279783;22;20635;-93
2022/03/14 23:20:59;;;;;;;8.93;4.07;;;12.80;93.20;;;;;;6279499;22;20239;-93
2022/03/14 23:23:25;;;;;;;12.93;4.80;;;12.80;93.60;;;;;;6279344;22;20170;-92
2022/03/14 23:25:51;;;;;;;16.43;5.43;;;12.90;93.60;;;;;;6280128;22;20144;-92
2022/03/14 23:28:17;;;;;;;16.27;5.47;;;12.70;94.30;;;;;;6280453;22;20204;-93
2022/03/14 23:30:42;;;;;;;8.07;4.13;;;12.80;94.30;;;;;;6283036;22;20236;-92
2022/03/14 23:33:08;;;;;;;8.10;4.93;;;12.70;94.60;;;;;;6281148;22;20272;-92
2022/03/14 23:35:34;;;;;;;10.93;4.60;;;12.60;94.70;;;;;;6280724;22;20267;-90
2022/03/14 23:38:00;;;;;;;9.63;4.77;;;12.60;94.60;;;;;;6280803;22;20524;-92
2022/03/14 23:40:26;;;;;;;8.53;4.77;;;12.60;94.80;;;;;;6281897;22;20156;-91
2022/03/14 23:42:55;;;;;;;10.13;5.00;;;12.60;94.60;;;;;;6291787;22;20204;-93
2022/03/14 23:45:21;;;;;;;15.07;5.67;;;12.50;94.70;;;;;;6291626;22;20146;-92
2022/03/14 23:47:47;;;;;;;12.67;5.60;;;12.40;94.90;;;;;;6282845;22;20199;-92
2022/03/14 23:50:13;;;;;;;9.37;5.33;;;12.30;95.40;;;;;;6284014;22;20174;-91
2022/03/14 23:52:39;;;;;;;11.13;5.60;;;12.30;95.30;;;;;;6283553;22;20187;-90
2022/03/14 23:55:06;;;;;;;10.40;6.17;;;12.20;95.30;;;;;;6285297;22;20237;-90
2022/03/14 23:57:32;;;;;;;12.63;5.57;;;12.20;95.40;;;;;;6283721;22;20593;-92
2022/03/14 23:59:57;;;;;;;17.10;5.77;;;12.20;95.70;;;;;;6283602;22;20182;-93
